sensor_id;sensor_type;location;lat;lon;timestamp;P1;durP1;ratioP1;P2;durP2;ratioP2
15946;SDS011;8072;52.554;7.966;2022-09-09T00:02:22;6.67;;;4.60;;
15946;SDS011;8072;52.554;7.966;2022-09-09T00:05:12;7.70;;;4.50;;
15946;SDS011;8072;52.554;7.966;2022-09-09T00:07:48;6.73;;;4.87;;
15946;SDS011;8072;52.554;7.966;2022-09-09T00:23:52;6.63;;;3.73;;
15946;SDS011;8072;52.554;7.966;2022-09-09T00:31:48;10.73;;;4.40;;
15946;SDS011;8072;52.554;7.966;2022-09-09T00:36:43;7.20;;;3.87;;
15946;SDS011;8072;52.554;7.966;2022-09-09T00:39:18;6.27;;;3.10;;
15946;SDS011;8072;52.554;7.966;2022-09-09T00:42:13;6.20;;;3.53;;
15946;SDS011;8072;52.554;7.966;2022-09-09T00:52:57;6.53;;;3.20;;
15946;SDS011;8072;52.554;7.966;2022-09-09T00:58:24;7.67;;;3.67;;
15946;SDS011;8072;52.554;7.966;2022-09-09T01:00:51;4.93;;;3.27;;
15946;SDS011;8072;52.554;7.966;2022-09-09T01:11:43;4.77;;;3.23;;
15946;SDS011;8072;52.554;7.966;2022-09-09T01:22:15;6.00;;;3.37;;
15946;SDS011;8072;52.554;7.966;2022-09-09T01:27:34;5.70;;;3.00;;
15946;SDS011;8072;52.554;7.966;2022-09-09T01:30:04;5.83;;;3.07;;
15946;SDS011;8072;52.554;7.966;2022-09-09T01:32:37;7.20;;;4.10;;
15946;SDS011;8072;52.554;7.966;2022-09-09T01:35:08;8.93;;;3.90;;
15946;SDS011;8072;52.554;7.966;2022-09-09T01:38:00;5.17;;;3.40;;
15946;SDS011;8072;52.554;7.966;2022-09-09T01:40:25;7.03;;;3.37;;
15946;SDS011;8072;52.554;7.966;2022-09-09T01:42:52;6.47;;;3.50;;
15946;SDS011;8072;52.554;7.966;2022-09-09T01:45:18;6.47;;;3.63;;
15946;SDS011;8072;52.554;7.966;2022-09-09T01:47:44;8.57;;;3.60;;
15946;SDS011;8072;52.554;7.966;2022-09-09T01:50:11;5.77;;;3.80;;
15946;SDS011;8072;52.554;7.966;2022-09-09T01:52:40;8.43;;;3.40;;
15946;SDS011;8072;52.554;7.966;2022-09-09T01:55:07;5.63;;;3.67;;
15946;SDS011;8072;52.554;7.966;2022-09-09T01:57:48;6.97;;;3.60;;
15946;SDS011;8072;52.554;7.966;2022-09-09T02:00:21;7.50;;;3.43;;
15946;SDS011;8072;52.554;7.966;2022-09-09T02:08:03;12.23;;;4.07;;
15946;SDS011;8072;52.554;7.966;2022-09-09T02:10:45;6.20;;;4.30;;
15946;SDS011;8072;52.554;7.966;2022-09-09T02:13:13;7.10;;;3.77;;
15946;SDS011;8072;52.554;7.966;2022-09-09T02:18:09;5.07;;;3.50;;
15946;SDS011;8072;52.554;7.966;2022-09-09T02:20:38;5.57;;;3.63;;
15946;SDS011;8072;52.554;7.966;2022-09-09T02:23:07;5.43;;;3.10;;
15946;SDS011;8072;52.554;7.966;2022-09-09T02:25:36;6.07;;;3.53;;
15946;SDS011;8072;52.554;7.966;2022-09-09T02:28:03;8.07;;;3.97;;
15946;SDS011;8072;52.554;7.966;2022-09-09T02:30:33;10.40;;;4.37;;
15946;SDS011;8072;52.554;7.966;2022-09-09T02:33:03;7.43;;;3.93;;
15946;SDS011;8072;52.554;7.966;2022-09-09T02:35:32;8.00;;;4.33;;
15946;SDS011;8072;52.554;7.966;2022-09-09T02:38:02;8.73;;;4.57;;
15946;SDS011;8072;52.554;7.966;2022-09-09T02:40:32;9.47;;;4.50;;
15946;SDS011;8072;52.554;7.966;2022-09-09T02:42:58;9.30;;;4.67;;
15946;SDS011;8072;52.554;7.966;2022-09-09T02:45:25;8.97;;;4.93;;
15946;SDS011;8072;52.554;7.966;2022-09-09T02:48:18;8.70;;;4.90;;
15946;SDS011;8072;52.554;7.966;2022-09-09T02:51:06;6.77;;;4.60;;
15946;SDS011;8072;52.554;7.966;2022-09-09T02:53:48;12.20;;;6.40;;
15946;SDS011;8072;52.554;7.966;2022-09-09T02:56:25;7.20;;;4.43;;
15946;SDS011;8072;52.554;7.966;2022-09-09T02:58:54;6.93;;;4.63;;
15946;SDS011;8072;52.554;7.966;2022-09-09T03:01:20;7.53;;;4.80;;
15946;SDS011;8072;52.554;7.966;2022-09-09T03:03:46;8.20;;;4.80;;
15946;SDS011;8072;52.554;7.966;2022-09-09T03:06:13;7.77;;;4.90;;
15946;SDS011;8072;52.554;7.966;2022-09-09T03:08:39;7.83;;;4.73;;
15946;SDS011;8072;52.554;7.966;2022-09-09T03:11:05;9.90;;;4.27;;
15946;SDS011;8072;52.554;7.966;2022-09-09T03:13:34;8.20;;;4.40;;
15946;SDS011;8072;52.554;7.966;2022-09-09T03:16:00;9.27;;;4.50;;
15946;SDS011;8072;52.554;7.966;2022-09-09T03:18:29;6.20;;;3.97;;
15946;SDS011;8072;52.554;7.966;2022-09-09T03:20:55;11.37;;;4.63;;
15946;SDS011;8072;52.554;7.966;2022-09-09T03:23:22;8.83;;;4.13;;
15946;SDS011;8072;52.554;7.966;2022-09-09T03:25:48;7.20;;;4.03;;
15946;SDS011;8072;52.554;7.966;2022-09-09T03:28:14;8.77;;;4.83;;
15946;SDS011;8072;52.554;7.966;2022-09-09T03:30:40;7.00;;;5.17;;
15946;SDS011;8072;52.554;7.966;2022-09-09T03:33:07;8.03;;;4.37;;
15946;SDS011;8072;52.554;7.966;2022-09-09T03:35:33;8.17;;;4.30;;
15946;SDS011;8072;52.554;7.966;2022-09-09T03:37:58;11.10;;;4.70;;
15946;SDS011;8072;52.554;7.966;2022-09-09T03:40:26;7.57;;;4.47;;
15946;SDS011;8072;52.554;7.966;2022-09-09T03:42:51;8.77;;;4.53;;
15946;SDS011;8072;52.554;7.966;2022-09-09T03:45:17;7.23;;;4.47;;
15946;SDS011;8072;52.554;7.966;2022-09-09T03:47:43;10.70;;;4.23;;
15946;SDS011;8072;52.554;7.966;2022-09-09T03:50:09;8.27;;;4.70;;
15946;SDS011;8072;52.554;7.966;2022-09-09T03:52:36;7.00;;;4.67;;
15946;SDS011;8072;52.554;7.966;2022-09-09T03:55:03;9.97;;;4.37;;
15946;SDS011;8072;52.554;7.966;2022-09-09T03:57:30;8.70;;;4.67;;
15946;SDS011;8072;52.554;7.966;2022-09-09T03:59:57;9.03;;;3.93;;
15946;SDS011;8072;52.554;7.966;2022-09-09T04:02:26;7.13;;;4.60;;
15946;SDS011;8072;52.554;7.966;2022-09-09T04:04:51;6.27;;;4.13;;
15946;SDS011;8072;52.554;7.966;2022-09-09T04:07:17;5.83;;;4.40;;
15946;SDS011;8072;52.554;7.966;2022-09-09T04:09:43;9.60;;;5.47;;
15946;SDS011;8072;52.554;7.966;2022-09-09T04:12:08;11.43;;;5.23;;
15946;SDS011;8072;52.554;7.966;2022-09-09T04:14:38;8.90;;;5.03;;
15946;SDS011;8072;52.554;7.966;2022-09-09T04:17:03;9.63;;;5.20;;
15946;SDS011;8072;52.554;7.966;2022-09-09T04:19:31;10.23;;;6.00;;
15946;SDS011;8072;52.554;7.966;2022-09-09T04:21:57;8.77;;;5.60;;
15946;SDS011;8072;52.554;7.966;2022-09-09T04:24:24;9.63;;;5.53;;
15946;SDS011;8072;52.554;7.966;2022-09-09T04:26:52;8.40;;;6.00;;
15946;SDS011;8072;52.554;7.966;2022-09-09T04:29:18;9.50;;;5.80;;
15946;SDS011;8072;52.554;7.966;2022-09-09T04:31:43;8.17;;;5.37;;
15946;SDS011;8072;52.554;7.966;2022-09-09T04:34:09;10.70;;;6.10;;
15946;SDS011;8072;52.554;7.966;2022-09-09T04:36:35;10.80;;;6.47;;
15946;SDS011;8072;52.554;7.966;2022-09-09T04:39:01;9.27;;;6.20;;
15946;SDS011;8072;52.554;7.966;2022-09-09T04:41:27;8.60;;;6.33;;
15946;SDS011;8072;52.554;7.966;2022-09-09T04:43:53;9.07;;;5.77;;
15946;SDS011;8072;52.554;7.966;2022-09-09T04:46:20;10.37;;;6.73;;
15946;SDS011;8072;52.554;7.966;2022-09-09T04:48:48;11.30;;;7.07;;
15946;SDS011;8072;52.554;7.966;2022-09-09T04:51:14;8.83;;;5.93;;
15946;SDS011;8072;52.554;7.966;2022-09-09T04:53:40;7.87;;;6.23;;
15946;SDS011;8072;52.554;7.966;2022-09-09T04:56:07;10.90;;;6.27;;
15946;SDS011;8072;52.554;7.966;2022-09-09T04:58:38;8.73;;;6.80;;
15946;SDS011;8072;52.554;7.966;2022-09-09T05:03:49;9.50;;;6.80;;
15946;SDS011;8072;52.554;7.966;2022-09-09T05:06:17;10.47;;;7.00;;
15946;SDS011;8072;52.554;7.966;2022-09-09T05:08:44;12.23;;;6.87;;
15946;SDS011;8072;52.554;7.966;2022-09-09T05:11:43;9.27;;;6.80;;
15946;SDS011;8072;52.554;7.966;2022-09-09T05:14:03;7.00;;;6.03;;
15946;SDS011;8072;52.554;7.966;2022-09-09T05:16:29;9.13;;;6.47;;
15946;SDS011;8072;52.554;7.966;2022-09-09T05:18:56;10.90;;;6.83;;
15946;SDS011;8072;52.554;7.966;2022-09-09T05:21:22;9.43;;;6.83;;
15946;SDS011;8072;52.554;7.966;2022-09-09T05:23:51;8.67;;;6.00;;
15946;SDS011;8072;52.554;7.966;2022-09-09T05:26:18;10.60;;;6.70;;
15946;SDS011;8072;52.554;7.966;2022-09-09T05:28:46;11.73;;;6.53;;
15946;SDS011;8072;52.554;7.966;2022-09-09T05:31:13;9.77;;;6.37;;
15946;SDS011;8072;52.554;7.966;2022-09-09T05:33:41;9.70;;;5.73;;
15946;SDS011;8072;52.554;7.966;2022-09-09T05:36:11;8.63;;;5.70;;
15946;SDS011;8072;52.554;7.966;2022-09-09T05:38:39;9.90;;;6.10;;
15946;SDS011;8072;52.554;7.966;2022-09-09T05:41:06;8.97;;;6.00;;
15946;SDS011;8072;52.554;7.966;2022-09-09T05:43:33;9.13;;;5.13;;
15946;SDS011;8072;52.554;7.966;2022-09-09T05:46:07;13.37;;;6.20;;
15946;SDS011;8072;52.554;7.966;2022-09-09T05:48:38;10.70;;;5.77;;
15946;SDS011;8072;52.554;7.966;2022-09-09T05:51:06;9.93;;;5.33;;
15946;SDS011;8072;52.554;7.966;2022-09-09T05:53:42;6.90;;;5.00;;
15946;SDS011;8072;52.554;7.966;2022-09-09T05:56:16;6.97;;;5.20;;
15946;SDS011;8072;52.554;7.966;2022-09-09T05:58:47;8.23;;;4.83;;
15946;SDS011;8072;52.554;7.966;2022-09-09T06:03:52;9.27;;;4.77;;
15946;SDS011;8072;52.554;7.966;2022-09-09T06:06:19;5.40;;;4.10;;
15946;SDS011;8072;52.554;7.966;2022-09-09T06:08:47;6.17;;;4.53;;
15946;SDS011;8072;52.554;7.966;2022-09-09T06:11:20;6.97;;;4.43;;
15946;SDS011;8072;52.554;7.966;2022-09-09T06:13:47;10.30;;;4.53;;
15946;SDS011;8072;52.554;7.966;2022-09-09T06:16:17;8.43;;;4.60;;
15946;SDS011;8072;52.554;7.966;2022-09-09T06:18:43;6.40;;;4.53;;
15946;SDS011;8072;52.554;7.966;2022-09-09T06:21:20;7.87;;;4.83;;
15946;SDS011;8072;52.554;7.966;2022-09-09T06:23:47;5.63;;;4.13;;
15946;SDS011;8072;52.554;7.966;2022-09-09T06:26:14;7.03;;;4.63;;
15946;SDS011;8072;52.554;7.966;2022-09-09T06:28:42;5.40;;;4.20;;
15946;SDS011;8072;52.554;7.966;2022-09-09T06:31:10;7.67;;;4.10;;
15946;SDS011;8072;52.554;7.966;2022-09-09T06:33:37;6.20;;;4.30;;
15946;SDS011;8072;52.554;7.966;2022-09-09T06:36:16;8.20;;;4.37;;
15946;SDS011;8072;52.554;7.966;2022-09-09T06:38:42;7.83;;;4.67;;
15946;SDS011;8072;52.554;7.966;2022-09-09T06:41:08;7.20;;;4.13;;
15946;SDS011;8072;52.554;7.966;2022-09-09T06:43:35;6.13;;;4.60;;
15946;SDS011;8072;52.554;7.966;2022-09-09T06:46:12;6.73;;;4.77;;
15946;SDS011;8072;52.554;7.966;2022-09-09T06:48:38;9.20;;;4.50;;
15946;SDS011;8072;52.554;7.966;2022-09-09T06:51:11;8.73;;;4.30;;
15946;SDS011;8072;52.554;7.966;2022-09-09T06:53:39;8.63;;;4.57;;
15946;SDS011;8072;52.554;7.966;2022-09-09T06:58:46;9.53;;;4.40;;
15946;SDS011;8072;52.554;7.966;2022-09-09T07:01:17;12.23;;;4.17;;
15946;SDS011;8072;52.554;7.966;2022-09-09T07:03:46;8.73;;;4.60;;
15946;SDS011;8072;52.554;7.966;2022-09-09T07:06:20;6.60;;;4.20;;
15946;SDS011;8072;52.554;7.966;2022-09-09T07:08:51;7.37;;;4.07;;
15946;SDS011;8072;52.554;7.966;2022-09-09T07:11:19;6.27;;;3.80;;
15946;SDS011;8072;52.554;7.966;2022-09-09T07:13:45;8.30;;;4.00;;
15946;SDS011;8072;52.554;7.966;2022-09-09T07:16:17;7.70;;;4.07;;
15946;SDS011;8072;52.554;7.966;2022-09-09T07:18:45;7.37;;;4.37;;
15946;SDS011;8072;52.554;7.966;2022-09-09T07:21:12;7.47;;;4.33;;
15946;SDS011;8072;52.554;7.966;2022-09-09T07:23:39;5.33;;;4.00;;
15946;SDS011;8072;52.554;7.966;2022-09-09T07:26:13;9.57;;;4.10;;
15946;SDS011;8072;52.554;7.966;2022-09-09T07:28:40;7.87;;;3.50;;
15946;SDS011;8072;52.554;7.966;2022-09-09T07:31:07;7.57;;;3.80;;
15946;SDS011;8072;52.554;7.966;2022-09-09T07:33:38;7.80;;;3.60;;
15946;SDS011;8072;52.554;7.966;2022-09-09T07:36:10;7.30;;;3.40;;
15946;SDS011;8072;52.554;7.966;2022-09-09T07:38:39;6.50;;;3.67;;
15946;SDS011;8072;52.554;7.966;2022-09-09T07:41:07;8.63;;;3.20;;
15946;SDS011;8072;52.554;7.966;2022-09-09T07:43:38;6.97;;;3.43;;
15946;SDS011;8072;52.554;7.966;2022-09-09T07:46:05;7.70;;;3.27;;
15946;SDS011;8072;52.554;7.966;2022-09-09T07:48:31;6.23;;;3.10;;
15946;SDS011;8072;52.554;7.966;2022-09-09T07:53:34;4.60;;;3.50;;
15946;SDS011;8072;52.554;7.966;2022-09-09T07:56:05;7.33;;;3.10;;
15946;SDS011;8072;52.554;7.966;2022-09-09T07:58:32;8.63;;;3.27;;
15946;SDS011;8072;52.554;7.966;2022-09-09T08:00:58;5.67;;;2.87;;
15946;SDS011;8072;52.554;7.966;2022-09-09T08:03:24;5.17;;;2.77;;
15946;SDS011;8072;52.554;7.966;2022-09-09T08:05:49;6.47;;;3.00;;
15946;SDS011;8072;52.554;7.966;2022-09-09T08:08:15;7.83;;;3.43;;
15946;SDS011;8072;52.554;7.966;2022-09-09T08:10:41;7.63;;;2.80;;
15946;SDS011;8072;52.554;7.966;2022-09-09T08:13:08;8.97;;;3.27;;
15946;SDS011;8072;52.554;7.966;2022-09-09T08:15:34;6.73;;;3.03;;
15946;SDS011;8072;52.554;7.966;2022-09-09T08:18:00;5.87;;;3.00;;
15946;SDS011;8072;52.554;7.966;2022-09-09T08:20:25;7.90;;;2.60;;
15946;SDS011;8072;52.554;7.966;2022-09-09T08:22:52;8.53;;;2.80;;
15946;SDS011;8072;52.554;7.966;2022-09-09T08:25:17;8.23;;;3.03;;
15946;SDS011;8072;52.554;7.966;2022-09-09T08:27:43;10.20;;;3.37;;
15946;SDS011;8072;52.554;7.966;2022-09-09T08:30:09;8.23;;;3.23;;
15946;SDS011;8072;52.554;7.966;2022-09-09T08:32:35;7.40;;;2.97;;
15946;SDS011;8072;52.554;7.966;2022-09-09T08:35:01;10.30;;;3.27;;
15946;SDS011;8072;52.554;7.966;2022-09-09T08:37:27;4.37;;;2.50;;
15946;SDS011;8072;52.554;7.966;2022-09-09T08:39:52;6.80;;;2.50;;
15946;SDS011;8072;52.554;7.966;2022-09-09T08:42:24;7.73;;;2.77;;
15946;SDS011;8072;52.554;7.966;2022-09-09T08:50:07;8.17;;;2.70;;
15946;SDS011;8072;52.554;7.966;2022-09-09T08:52:53;6.97;;;2.70;;
15946;SDS011;8072;52.554;7.966;2022-09-09T08:58:12;10.77;;;2.70;;
15946;SDS011;8072;52.554;7.966;2022-09-09T09:06:04;8.00;;;2.60;;
15946;SDS011;8072;52.554;7.966;2022-09-09T09:11:16;10.73;;;2.67;;
15946;SDS011;8072;52.554;7.966;2022-09-09T09:16:25;13.23;;;2.97;;
15946;SDS011;8072;52.554;7.966;2022-09-09T09:19:03;7.27;;;2.80;;
15946;SDS011;8072;52.554;7.966;2022-09-09T09:21:39;6.50;;;3.27;;
15946;SDS011;8072;52.554;7.966;2022-09-09T09:24:19;9.37;;;3.57;;
15946;SDS011;8072;52.554;7.966;2022-09-09T09:26:48;7.10;;;3.30;;
15946;SDS011;8072;52.554;7.966;2022-09-09T09:29:15;11.37;;;5.23;;
15946;SDS011;8072;52.554;7.966;2022-09-09T09:31:46;8.37;;;4.20;;
15946;SDS011;8072;52.554;7.966;2022-09-09T09:34:17;7.17;;;5.00;;
15946;SDS011;8072;52.554;7.966;2022-09-09T09:37:01;7.17;;;5.43;;
15946;SDS011;8072;52.554;7.966;2022-09-09T09:39:28;14.23;;;5.40;;
15946;SDS011;8072;52.554;7.966;2022-09-09T09:41:55;7.70;;;5.10;;
15946;SDS011;8072;52.554;7.966;2022-09-09T09:44:27;10.43;;;5.23;;
15946;SDS011;8072;52.554;7.966;2022-09-09T09:49:59;7.70;;;5.00;;
15946;SDS011;8072;52.554;7.966;2022-09-09T09:52:30;13.47;;;5.47;;
15946;SDS011;8072;52.554;7.966;2022-09-09T09:54:59;11.17;;;4.87;;
15946;SDS011;8072;52.554;7.966;2022-09-09T09:57:32;8.23;;;3.87;;
15946;SDS011;8072;52.554;7.966;2022-09-09T10:02:45;10.27;;;4.20;;
15946;SDS011;8072;52.554;7.966;2022-09-09T10:07:42;6.50;;;4.20;;
15946;SDS011;8072;52.554;7.966;2022-09-09T10:10:20;10.10;;;4.30;;
15946;SDS011;8072;52.554;7.966;2022-09-09T10:18:39;4.30;;;3.07;;
15946;SDS011;8072;52.554;7.966;2022-09-09T10:21:36;10.27;;;3.20;;
15946;SDS011;8072;52.554;7.966;2022-09-09T10:38:45;5.53;;;4.05;;
15946;SDS011;8072;52.554;7.966;2022-09-09T10:44:10;7.05;;;4.03;;
15946;SDS011;8072;52.554;7.966;2022-09-09T10:51:56;6.63;;;4.40;;
15946;SDS011;8072;52.554;7.966;2022-09-09T10:57:55;6.70;;;4.10;;
15946;SDS011;8072;52.554;7.966;2022-09-09T11:00:24;6.82;;;3.90;;
15946;SDS011;8072;52.554;7.966;2022-09-09T11:03:16;5.65;;;2.47;;
15946;SDS011;8072;52.554;7.966;2022-09-09T11:05:46;6.07;;;2.40;;
15946;SDS011;8072;52.554;7.966;2022-09-09T11:08:21;3.92;;;2.08;;
15946;SDS011;8072;52.554;7.966;2022-09-09T11:16:53;5.30;;;1.80;;
15946;SDS011;8072;52.554;7.966;2022-09-09T11:22:05;9.30;;;2.50;;
15946;SDS011;8072;52.554;7.966;2022-09-09T11:40:29;15.50;;;3.38;;
15946;SDS011;8072;52.554;7.966;2022-09-09T11:45:37;6.25;;;3.17;;
15946;SDS011;8072;52.554;7.966;2022-09-09T11:48:26;7.95;;;2.95;;
15946;SDS011;8072;52.554;7.966;2022-09-09T11:51:13;7.05;;;2.13;;
15946;SDS011;8072;52.554;7.966;2022-09-09T11:54:00;5.25;;;1.95;;
15946;SDS011;8072;52.554;7.966;2022-09-09T11:59:17;5.53;;;1.75;;
15946;SDS011;8072;52.554;7.966;2022-09-09T12:01:58;5.22;;;1.75;;
15946;SDS011;8072;52.554;7.966;2022-09-09T12:09:51;3.17;;;1.70;;
15946;SDS011;8072;52.554;7.966;2022-09-09T12:14:58;4.70;;;1.75;;
15946;SDS011;8072;52.554;7.966;2022-09-09T12:17:25;4.93;;;1.40;;
15946;SDS011;8072;52.554;7.966;2022-09-09T12:31:02;3.95;;;1.48;;
15946;SDS011;8072;52.554;7.966;2022-09-09T12:33:36;4.93;;;1.23;;
15946;SDS011;8072;52.554;7.966;2022-09-09T12:36:10;4.07;;;1.35;;
15946;SDS011;8072;52.554;7.966;2022-09-09T12:38:49;2.35;;;1.02;;
15946;SDS011;8072;52.554;7.966;2022-09-09T12:41:23;3.03;;;0.98;;
15946;SDS011;8072;52.554;7.966;2022-09-09T12:43:51;5.53;;;1.30;;
15946;SDS011;8072;52.554;7.966;2022-09-09T12:46:44;3.70;;;1.20;;
15946;SDS011;8072;52.554;7.966;2022-09-09T12:52:03;7.63;;;1.50;;
15946;SDS011;8072;52.554;7.966;2022-09-09T12:54:38;3.15;;;1.45;;
15946;SDS011;8072;52.554;7.966;2022-09-09T12:57:12;3.00;;;1.42;;
15946;SDS011;8072;52.554;7.966;2022-09-09T12:59:39;2.20;;;1.10;;
15946;SDS011;8072;52.554;7.966;2022-09-09T13:02:11;2.83;;;1.20;;
15946;SDS011;8072;52.554;7.966;2022-09-09T13:04:49;3.55;;;1.20;;
15946;SDS011;8072;52.554;7.966;2022-09-09T13:07:18;2.00;;;1.40;;
15946;SDS011;8072;52.554;7.966;2022-09-09T13:09:45;3.55;;;1.67;;
15946;SDS011;8072;52.554;7.966;2022-09-09T13:12:14;4.88;;;1.55;;
15946;SDS011;8072;52.554;7.966;2022-09-09T13:14:49;2.42;;;1.45;;
15946;SDS011;8072;52.554;7.966;2022-09-09T13:17:25;4.55;;;1.60;;
15946;SDS011;8072;52.554;7.966;2022-09-09T13:19:54;2.53;;;1.30;;
15946;SDS011;8072;52.554;7.966;2022-09-09T13:25:04;3.58;;;1.30;;
15946;SDS011;8072;52.554;7.966;2022-09-09T13:27:34;6.10;;;1.50;;
15946;SDS011;8072;52.554;7.966;2022-09-09T13:38:15;3.55;;;1.40;;
15946;SDS011;8072;52.554;7.966;2022-09-09T13:40:51;6.00;;;1.63;;
15946;SDS011;8072;52.554;7.966;2022-09-09T13:43:20;6.05;;;2.15;;
15946;SDS011;8072;52.554;7.966;2022-09-09T13:46:23;4.40;;;2.08;;
15946;SDS011;8072;52.554;7.966;2022-09-09T13:48:57;6.45;;;2.42;;
15946;SDS011;8072;52.554;7.966;2022-09-09T13:51:45;3.13;;;1.88;;
15946;SDS011;8072;52.554;7.966;2022-09-09T13:54:15;3.63;;;1.85;;
15946;SDS011;8072;52.554;7.966;2022-09-09T13:56:43;5.88;;;2.10;;
15946;SDS011;8072;52.554;7.966;2022-09-09T13:59:13;4.63;;;2.10;;
15946;SDS011;8072;52.554;7.966;2022-09-09T14:01:44;3.10;;;1.83;;
15946;SDS011;8072;52.554;7.966;2022-09-09T14:04:11;5.00;;;2.47;;
15946;SDS011;8072;52.554;7.966;2022-09-09T14:06:37;6.43;;;2.30;;
15946;SDS011;8072;52.554;7.966;2022-09-09T14:09:08;5.43;;;2.15;;
15946;SDS011;8072;52.554;7.966;2022-09-09T14:11:37;5.40;;;2.03;;
15946;SDS011;8072;52.554;7.966;2022-09-09T14:14:03;4.70;;;2.00;;
15946;SDS011;8072;52.554;7.966;2022-09-09T14:16:28;3.53;;;1.60;;
15946;SDS011;8072;52.554;7.966;2022-09-09T14:18:54;5.57;;;1.50;;
15946;SDS011;8072;52.554;7.966;2022-09-09T14:21:24;7.10;;;1.70;;
15946;SDS011;8072;52.554;7.966;2022-09-09T14:23:51;2.90;;;1.52;;
15946;SDS011;8072;52.554;7.966;2022-09-09T14:26:23;4.35;;;1.52;;
15946;SDS011;8072;52.554;7.966;2022-09-09T14:28:49;4.28;;;1.73;;
15946;SDS011;8072;52.554;7.966;2022-09-09T14:31:15;3.05;;;1.70;;
15946;SDS011;8072;52.554;7.966;2022-09-09T14:33:42;3.92;;;1.45;;
15946;SDS011;8072;52.554;7.966;2022-09-09T14:36:09;5.68;;;1.23;;
15946;SDS011;8072;52.554;7.966;2022-09-09T14:38:36;3.03;;;1.20;;
15946;SDS011;8072;52.554;7.966;2022-09-09T14:41:07;2.35;;;1.10;;
15946;SDS011;8072;52.554;7.966;2022-09-09T14:43:42;3.50;;;1.27;;
15946;SDS011;8072;52.554;7.966;2022-09-09T14:46:09;2.20;;;1.10;;
15946;SDS011;8072;52.554;7.966;2022-09-09T14:48:36;3.25;;;1.10;;
15946;SDS011;8072;52.554;7.966;2022-09-09T14:51:16;4.95;;;1.27;;
15946;SDS011;8072;52.554;7.966;2022-09-09T14:53:57;3.40;;;0.80;;
15946;SDS011;8072;52.554;7.966;2022-09-09T14:56:28;3.75;;;1.00;;
15946;SDS011;8072;52.554;7.966;2022-09-09T14:58:55;3.45;;;1.05;;
15946;SDS011;8072;52.554;7.966;2022-09-09T15:01:22;3.25;;;1.13;;
15946;SDS011;8072;52.554;7.966;2022-09-09T15:03:59;6.20;;;1.45;;
15946;SDS011;8072;52.554;7.966;2022-09-09T15:06:27;7.80;;;1.40;;
15946;SDS011;8072;52.554;7.966;2022-09-09T15:08:54;8.00;;;2.00;;
15946;SDS011;8072;52.554;7.966;2022-09-09T15:11:22;3.17;;;1.80;;
15946;SDS011;8072;52.554;7.966;2022-09-09T15:13:50;7.10;;;2.20;;
15946;SDS011;8072;52.554;7.966;2022-09-09T15:16:20;5.03;;;1.80;;
15946;SDS011;8072;52.554;7.966;2022-09-09T15:18:50;5.03;;;1.43;;
15946;SDS011;8072;52.554;7.966;2022-09-09T15:21:19;5.20;;;1.90;;
15946;SDS011;8072;52.554;7.966;2022-09-09T15:23:46;5.23;;;1.83;;
15946;SDS011;8072;52.554;7.966;2022-09-09T15:26:16;5.23;;;2.13;;
15946;SDS011;8072;52.554;7.966;2022-09-09T15:28:43;2.43;;;1.87;;
15946;SDS011;8072;52.554;7.966;2022-09-09T15:31:14;5.13;;;1.80;;
15946;SDS011;8072;52.554;7.966;2022-09-09T15:33:54;3.07;;;1.70;;
15946;SDS011;8072;52.554;7.966;2022-09-09T15:36:35;1.67;;;1.50;;
15946;SDS011;8072;52.554;7.966;2022-09-09T15:39:10;4.60;;;1.90;;
15946;SDS011;8072;52.554;7.966;2022-09-09T15:41:38;6.47;;;1.70;;
15946;SDS011;8072;52.554;7.966;2022-09-09T15:44:04;5.77;;;1.77;;
15946;SDS011;8072;52.554;7.966;2022-09-09T15:49:45;2.77;;;1.43;;
15946;SDS011;8072;52.554;7.966;2022-09-09T15:51:52;4.80;;;1.80;;
15946;SDS011;8072;52.554;7.966;2022-09-09T15:54:20;2.60;;;1.60;;
15946;SDS011;8072;52.554;7.966;2022-09-09T15:56:56;2.93;;;1.63;;
15946;SDS011;8072;52.554;7.966;2022-09-09T15:59:23;1.97;;;1.20;;
15946;SDS011;8072;52.554;7.966;2022-09-09T16:01:50;3.73;;;1.70;;
15946;SDS011;8072;52.554;7.966;2022-09-09T16:04:17;3.43;;;1.60;;
15946;SDS011;8072;52.554;7.966;2022-09-09T16:06:50;1.67;;;1.57;;
15946;SDS011;8072;52.554;7.966;2022-09-09T16:09:17;3.20;;;1.50;;
15946;SDS011;8072;52.554;7.966;2022-09-09T16:11:43;3.80;;;1.63;;
15946;SDS011;8072;52.554;7.966;2022-09-09T16:14:09;2.57;;;1.50;;
15946;SDS011;8072;52.554;7.966;2022-09-09T16:16:36;2.57;;;1.73;;
15946;SDS011;8072;52.554;7.966;2022-09-09T16:19:06;2.10;;;1.30;;
15946;SDS011;8072;52.554;7.966;2022-09-09T16:21:44;2.73;;;1.67;;
15946;SDS011;8072;52.554;7.966;2022-09-09T16:24:12;1.87;;;1.13;;
15946;SDS011;8072;52.554;7.966;2022-09-09T16:26:41;5.60;;;1.27;;
15946;SDS011;8072;52.554;7.966;2022-09-09T16:29:10;1.60;;;1.37;;
15946;SDS011;8072;52.554;7.966;2022-09-09T16:31:37;4.47;;;1.60;;
15946;SDS011;8072;52.554;7.966;2022-09-09T16:34:03;2.93;;;1.57;;
15946;SDS011;8072;52.554;7.966;2022-09-09T16:36:29;2.00;;;1.20;;
15946;SDS011;8072;52.554;7.966;2022-09-09T16:38:58;3.27;;;1.27;;
15946;SDS011;8072;52.554;7.966;2022-09-09T16:41:25;1.50;;;1.07;;
15946;SDS011;8072;52.554;7.966;2022-09-09T16:43:54;2.53;;;1.20;;
15946;SDS011;8072;52.554;7.966;2022-09-09T16:46:21;1.57;;;1.20;;
15946;SDS011;8072;52.554;7.966;2022-09-09T16:48:49;2.57;;;1.50;;
15946;SDS011;8072;52.554;7.966;2022-09-09T16:51:20;4.03;;;1.40;;
15946;SDS011;8072;52.554;7.966;2022-09-09T16:53:50;2.70;;;1.20;;
15946;SDS011;8072;52.554;7.966;2022-09-09T16:56:18;1.67;;;1.20;;
15946;SDS011;8072;52.554;7.966;2022-09-09T16:58:49;2.40;;;1.20;;
15946;SDS011;8072;52.554;7.966;2022-09-09T17:01:16;3.57;;;1.20;;
15946;SDS011;8072;52.554;7.966;2022-09-09T17:03:41;2.73;;;1.20;;
15946;SDS011;8072;52.554;7.966;2022-09-09T17:06:14;3.87;;;1.60;;
15946;SDS011;8072;52.554;7.966;2022-09-09T17:08:40;4.03;;;1.20;;
15946;SDS011;8072;52.554;7.966;2022-09-09T17:11:17;3.17;;;1.13;;
15946;SDS011;8072;52.554;7.966;2022-09-09T17:13:46;2.37;;;1.40;;
15946;SDS011;8072;52.554;7.966;2022-09-09T17:16:13;2.87;;;1.40;;
15946;SDS011;8072;52.554;7.966;2022-09-09T17:18:40;3.93;;;1.90;;
15946;SDS011;8072;52.554;7.966;2022-09-09T17:21:07;4.80;;;1.93;;
15946;SDS011;8072;52.554;7.966;2022-09-09T17:23:39;2.60;;;1.30;;
15946;SDS011;8072;52.554;7.966;2022-09-09T17:26:06;2.67;;;1.50;;
15946;SDS011;8072;52.554;7.966;2022-09-09T17:28:33;3.27;;;1.70;;
15946;SDS011;8072;52.554;7.966;2022-09-09T17:31:00;3.10;;;1.67;;
15946;SDS011;8072;52.554;7.966;2022-09-09T17:33:31;3.57;;;1.50;;
15946;SDS011;8072;52.554;7.966;2022-09-09T17:35:58;2.27;;;1.53;;
15946;SDS011;8072;52.554;7.966;2022-09-09T17:38:48;2.97;;;1.30;;
15946;SDS011;8072;52.554;7.966;2022-09-09T17:43:41;2.70;;;1.43;;
15946;SDS011;8072;52.554;7.966;2022-09-09T17:48:40;2.47;;;1.43;;
15946;SDS011;8072;52.554;7.966;2022-09-09T17:51:09;3.73;;;1.40;;
15946;SDS011;8072;52.554;7.966;2022-09-09T17:53:40;4.33;;;1.40;;
15946;SDS011;8072;52.554;7.966;2022-09-09T17:56:08;2.57;;;1.50;;
15946;SDS011;8072;52.554;7.966;2022-09-09T17:58:36;2.17;;;1.33;;
15946;SDS011;8072;52.554;7.966;2022-09-09T18:01:06;2.57;;;1.37;;
15946;SDS011;8072;52.554;7.966;2022-09-09T18:03:41;1.93;;;1.30;;
15946;SDS011;8072;52.554;7.966;2022-09-09T18:06:08;1.60;;;1.50;;
15946;SDS011;8072;52.554;7.966;2022-09-09T18:08:37;1.63;;;1.13;;
15946;SDS011;8072;52.554;7.966;2022-09-09T18:11:05;2.47;;;1.53;;
15946;SDS011;8072;52.554;7.966;2022-09-09T18:13:31;3.67;;;1.60;;
15946;SDS011;8072;52.554;7.966;2022-09-09T18:15:58;1.67;;;1.30;;
15946;SDS011;8072;52.554;7.966;2022-09-09T18:18:25;2.57;;;1.23;;
15946;SDS011;8072;52.554;7.966;2022-09-09T18:21:01;3.07;;;1.40;;
15946;SDS011;8072;52.554;7.966;2022-09-09T18:23:33;1.20;;;1.10;;
15946;SDS011;8072;52.554;7.966;2022-09-09T18:26:06;3.50;;;1.30;;
15946;SDS011;8072;52.554;7.966;2022-09-09T18:28:37;2.43;;;1.23;;
15946;SDS011;8072;52.554;7.966;2022-09-09T18:31:10;1.00;;;1.00;;
15946;SDS011;8072;52.554;7.966;2022-09-09T18:33:39;1.40;;;1.00;;
15946;SDS011;8072;52.554;7.966;2022-09-09T18:36:07;1.20;;;1.00;;
15946;SDS011;8072;52.554;7.966;2022-09-09T18:38:39;2.63;;;1.10;;